Time;durP1;ratioP1;P1;durP2;ratioP2;P2;SDS_P1;SDS_P2;PMS_P1;PMS_P2;Temp;Humidity;BMP_temperature;BMP_pressure;BME280_temperature;BME280_humidity;BME280_pressure;Samples;Min_cycle;Max_cycle;Signal;HPM_P1;HPM_P2
2022/08/15 00:01:07;;;;;;;;;;;24.70;77.00;;;;;;5028584;28;20290;-64
2022/08/15 00:03:39;;;;;;;;;;;24.60;77.10;;;;;;5026857;28;21214;-64
2022/08/15 00:06:28;;;;;;;;;;;24.60;77.20;;;;;;5031414;28;20083;-63
2022/08/15 00:09:06;;;;;;;;;;;24.60;77.00;;;;;;5028837;28;20075;-64
2022/08/15 00:11:37;;;;;;;;;;;24.60;77.40;;;;;;5030347;28;20720;-63
2022/08/15 00:14:08;;;;;;;;;;;24.50;77.40;;;;;;5024599;28;20075;-64
2022/08/15 00:16:48;;;;;;;;;;;24.40;77.60;;;;;;5030088;28;20869;-63
2022/08/15 00:19:18;;;;;;;;;;;24.40;78.00;;;;;;5026416;28;20741;-64
2022/08/15 00:21:52;;;;;;;;;;;24.40;78.30;;;;;;5030058;28;20456;-64
2022/08/15 00:24:21;;;;;;;;;;;24.30;78.40;;;;;;5027272;28;20599;-64
2022/08/15 00:26:57;;;;;;;;;;;24.40;79.60;;;;;;5029828;28;20879;-66
2022/08/15 00:29:28;;;;;;;;;;;24.30;80.00;;;;;;5029334;28;21046;-64
2022/08/15 00:32:06;;;;;;;;;;;24.40;79.60;;;;;;5026817;28;25130;-65
2022/08/15 00:34:53;;;;;;;;;;;24.40;79.40;;;;;;5032605;28;20332;-65
2022/08/15 00:37:22;;;;;;;;;;;24.30;79.90;;;;;;5028553;28;21068;-64
2022/08/15 00:39:49;;;;;;;;;;;24.30;79.60;;;;;;5026810;28;19995;-64
2022/08/15 00:42:24;;;;;;;;;;;24.20;79.80;;;;;;5026185;28;20681;-64
2022/08/15 00:44:57;;;;;;;;;;;24.20;80.10;;;;;;5029173;28;20493;-64
2022/08/15 00:47:34;;;;;;;;;;;24.10;80.10;;;;;;5025387;28;20803;-67
2022/08/15 00:50:07;;;;;;;;;;;24.00;79.80;;;;;;5030250;28;20348;-65
2022/08/15 00:52:54;;;;;;;;;;;24.00;80.10;;;;;;5030422;28;26157;-64
2022/08/15 00:55:22;;;;;;;;;;;24.00;80.00;;;;;;5030245;28;20131;-65
2022/08/15 00:57:53;;;;;;;;;;;23.90;79.80;;;;;;5024715;28;20279;-64
2022/08/15 01:00:31;;;;;;;;;;;24.00;79.70;;;;;;5029503;28;20770;-64
2022/08/15 01:03:08;;;;;;;;;;;24.00;78.60;;;;;;5028407;28;20025;-65
2022/08/15 01:05:43;;;;;;;;;;;24.00;78.20;;;;;;5029985;28;20138;-64
2022/08/15 01:08:16;;;;;;;;;;;24.00;77.90;;;;;;5029216;28;19994;-65
2022/08/15 01:10:55;;;;;;;;;;;24.10;77.60;;;;;;5029811;28;20295;-65
2022/08/15 01:13:30;;;;;;;;;;;24.20;77.30;;;;;;5030910;28;20078;-65
2022/08/15 01:16:19;;;;;;;;;;;24.30;78.10;;;;;;5033165;28;20468;-65
2022/08/15 01:19:03;;;;;;;;;;;24.40;78.00;;;;;;5030298;28;20035;-65
2022/08/15 01:21:38;;;;;;;;;;;24.40;77.50;;;;;;5026743;28;20520;-64
2022/08/15 01:24:15;;;;;;;;;;;24.40;78.10;;;;;;5025446;28;20019;-63
2022/08/15 01:26:46;;;;;;;;;;;24.30;81.50;;;;;;5025855;28;19998;-64
2022/08/15 01:29:19;;;;;;;;;;;24.20;82.90;;;;;;5029387;28;20150;-64
2022/08/15 01:31:47;;;;;;;;;;;24.00;84.00;;;;;;5030289;28;19993;-64
2022/08/15 01:34:16;;;;;;;;;;;23.90;84.30;;;;;;5029543;28;20205;-63
2022/08/15 01:36:46;;;;;;;;;;;23.90;84.30;;;;;;5030040;28;20009;-63
2022/08/15 01:39:19;;;;;;;;;;;23.90;83.70;;;;;;5026735;28;21000;-64
2022/08/15 01:41:52;;;;;;;;;;;23.90;83.40;;;;;;5026908;28;21391;-64
2022/08/15 01:44:25;;;;;;;;;;;23.90;82.70;;;;;;5028299;28;20313;-64
2022/08/15 01:47:08;;;;;;;;;;;23.90;81.90;;;;;;5028719;28;20062;-64
2022/08/15 01:49:43;;;;;;;;;;;24.00;82.20;;;;;;5027555;28;20331;-64
2022/08/15 01:52:12;;;;;;;;;;;24.00;82.70;;;;;;5027082;28;21203;-64
2022/08/15 01:55:02;;;;;;;;;;;24.00;82.20;;;;;;5026030;28;20011;-64
2022/08/15 01:57:34;;;;;;;;;;;23.90;82.00;;;;;;5028007;28;20000;-64
2022/08/15 02:00:04;;;;;;;;;;;23.90;82.60;;;;;;5028632;28;20006;-64
2022/08/15 02:02:45;;;;;;;;;;;23.90;82.70;;;;;;5025459;28;19995;-64
2022/08/15 02:05:14;;;;;;;;;;;23.80;82.70;;;;;;5028011;28;20567;-64
2022/08/15 02:07:42;;;;;;;;;;;23.80;83.00;;;;;;5029163;28;20056;-64
2022/08/15 02:10:16;;;;;;;;;;;23.80;82.80;;;;;;5027784;28;20002;-64
2022/08/15 02:12:49;;;;;;;;;;;23.90;82.70;;;;;;5029169;28;20705;-64
2022/08/15 02:15:37;;;;;;;;;;;23.80;83.10;;;;;;5026910;28;25130;-64
2022/08/15 02:18:05;;;;;;;;;;;23.80;83.60;;;;;;5028668;28;20623;-63
2022/08/15 02:20:33;;;;;;;;;;;23.80;83.90;;;;;;5025191;28;20505;-61
2022/08/15 02:23:06;;;;;;;;;;;23.70;84.00;;;;;;5023987;28;20570;-63
2022/08/15 02:25:46;;;;;;;;;;;23.80;84.00;;;;;;5025643;28;20778;-63
2022/08/15 02:28:15;;;;;;;;;;;23.80;84.10;;;;;;5028398;28;20466;-63
2022/08/15 02:31:07;;;;;;;;;;;23.90;84.10;;;;;;5023846;28;19973;-64
2022/08/15 02:33:38;;;;;;;;;;;23.90;84.30;;;;;;5029520;28;19996;-62
2022/08/15 02:36:10;;;;;;;;;;;23.90;85.00;;;;;;5027984;28;20115;-63
2022/08/15 02:38:39;;;;;;;;;;;23.90;85.60;;;;;;5026628;28;20690;-64
2022/08/15 02:41:19;;;;;;;;;;;23.90;86.70;;;;;;5027722;28;20677;-64
2022/08/15 02:43:48;;;;;;;;;;;23.90;87.60;;;;;;5027764;28;19991;-64
2022/08/15 02:46:19;;;;;;;;;;;23.90;87.10;;;;;;5027891;28;20135;-64
2022/08/15 02:48:58;;;;;;;;;;;23.90;88.50;;;;;;5023364;28;21327;-64
2022/08/15 02:51:27;;;;;;;;;;;23.90;89.00;;;;;;5027969;28;25082;-64
2022/08/15 02:53:59;;;;;;;;;;;23.90;88.70;;;;;;5026426;28;20110;-64
2022/08/15 02:56:47;;;;;;;;;;;23.90;89.60;;;;;;5027437;28;20934;-65
2022/08/15 02:59:16;;;;;;;;;;;23.80;90.30;;;;;;5027652;28;20082;-64
2022/08/15 03:01:44;;;;;;;;;;;23.60;90.90;;;;;;5023523;28;19978;-64
2022/08/15 03:04:14;;;;;;;;;;;23.50;91.50;;;;;;5028234;28;20101;-65
2022/08/15 03:06:56;;;;;;;;;;;23.50;92.60;;;;;;5026427;28;19980;-65
2022/08/15 03:09:25;;;;;;;;;;;23.40;93.80;;;;;;5031969;28;20544;-65
2022/08/15 03:12:04;;;;;;;;;;;23.40;94.80;;;;;;5032055;28;19989;-64
2022/08/15 03:14:53;;;;;;;;;;;23.30;95.60;;;;;;5031760;28;20054;-64
2022/08/15 03:17:22;;;;;;;;;;;23.30;96.50;;;;;;5029606;28;20652;-64
2022/08/15 03:19:49;;;;;;;;;;;23.30;96.70;;;;;;5032665;28;20807;-64
2022/08/15 03:22:19;;;;;;;;;;;23.30;97.40;;;;;;5028835;28;20014;-64
2022/08/15 03:25:07;;;;;;;;;;;23.20;97.90;;;;;;5028456;28;20946;-64
2022/08/15 03:27:35;;;;;;;;;;;23.20;98.40;;;;;;5032014;28;20293;-64
2022/08/15 03:30:07;;;;;;;;;;;23.20;98.80;;;;;;5031520;28;20018;-64
2022/08/15 03:32:48;;;;;;;;;;;23.20;99.10;;;;;;5025391;28;20872;-64
2022/08/15 03:35:21;;;;;;;;;;;23.20;99.40;;;;;;5029560;28;21006;-63
2022/08/15 03:37:54;;;;;;;;;;;23.20;99.90;;;;;;5031835;28;20731;-64
2022/08/15 03:40:27;;;;;;;;;;;23.20;99.90;;;;;;5030714;28;20494;-65
2022/08/15 03:42:58;;;;;;;;;;;23.20;99.90;;;;;;5026360;28;25149;-64
2022/08/15 03:45:41;;;;;;;;;;;23.10;99.90;;;;;;5027961;28;20845;-64
2022/08/15 03:48:09;;;;;;;;;;;23.10;99.90;;;;;;5030170;28;20395;-64
2022/08/15 03:50:50;;;;;;;;;;;23.10;99.90;;;;;;5028377;28;20925;-64
2022/08/15 03:53:27;;;;;;;;;;;23.10;99.90;;;;;;5060241;22;20768;-63
2022/08/15 03:55:56;;;;;;;;;;;23.10;99.90;;;;;;5050038;28;20482;-65
2022/08/15 03:58:27;;;;;;;;;;;23.00;99.90;;;;;;5049306;28;20905;-61
2022/08/15 04:01:05;;;;;;;;;;;23.00;99.90;;;;;;5049543;28;20297;-60
2022/08/15 04:03:33;;;;;;;;;;;23.00;99.90;;;;;;5043975;28;20783;-60
2022/08/15 04:06:06;;;;;;;;;;;22.90;99.90;;;;;;5029436;28;19981;-59
2022/08/15 04:08:35;;;;;;;;;;;22.90;99.90;;;;;;5024644;28;20612;-60
2022/08/15 04:11:28;;;;;;;;;;;22.80;99.90;;;;;;5032384;28;20477;-60
2022/08/15 04:14:06;;;;;;;;;;;22.70;99.90;;;;;;5028007;28;25080;-60
2022/08/15 04:16:56;;;;;;;;;;;22.70;99.90;;;;;;5032933;28;21830;-60
2022/08/15 04:19:32;;;;;;;;;;;22.70;99.90;;;;;;5026670;28;20158;-59
2022/08/15 04:22:15;;;;;;;;;;;22.60;99.90;;;;;;5028440;28;20225;-60
2022/08/15 04:25:04;;;;;;;;;;;22.60;99.90;;;;;;5031715;28;20140;-60
2022/08/15 04:27:45;;;;;;;;;;;22.60;99.90;;;;;;5029451;28;21242;-61
2022/08/15 04:30:20;;;;;;;;;;;22.60;99.90;;;;;;5030930;28;20877;-61
2022/08/15 04:32:52;;;;;;;;;;;22.60;99.90;;;;;;5028023;28;20914;-60
2022/08/15 04:35:42;;;;;;;;;;;22.50;99.90;;;;;;5025591;28;20451;-62
2022/08/15 04:38:10;;;;;;;;;;;22.60;99.90;;;;;;5020363;28;20734;-61
2022/08/15 04:40:38;;;;;;;;;;;22.60;99.90;;;;;;5021628;28;20203;-62
2022/08/15 04:43:26;;;;;;;;;;;22.70;99.90;;;;;;5022213;28;20305;-62
2022/08/15 04:45:54;;;;;;;;;;;23.00;99.90;;;;;;5022648;28;20872;-61
2022/08/15 04:48:26;;;;;;;;;;;23.10;99.90;;;;;;5019679;28;20158;-61
2022/08/15 04:50:55;;;;;;;;;;;23.10;99.90;;;;;;5021404;28;20230;-60
2022/08/15 04:53:24;;;;;;;;;;;23.10;99.90;;;;;;5021228;28;19979;-61
2022/08/15 04:55:59;;;;;;;;;;;23.00;99.90;;;;;;5020308;28;20365;-60
2022/08/15 04:58:28;;;;;;;;;;;22.90;99.90;;;;;;5019879;28;20766;-61
2022/08/15 05:01:16;;;;;;;;;;;23.00;99.90;;;;;;5023301;28;20155;-59
2022/08/15 05:03:46;;;;;;;;;;;23.00;99.90;;;;;;5019739;28;19987;-60
2022/08/15 05:06:22;;;;;;;;;;;23.10;99.90;;;;;;5021562;28;20000;-59
2022/08/15 05:08:57;;;;;;;;;;;23.00;99.90;;;;;;5018294;28;19969;-60
2022/08/15 05:11:25;;;;;;;;;;;23.00;99.90;;;;;;5020863;28;20131;-60
2022/08/15 05:14:13;;;;;;;;;;;23.10;99.90;;;;;;5020869;28;20883;-60
2022/08/15 05:17:01;;;;;;;;;;;23.30;99.90;;;;;;5023238;28;20465;-61
2022/08/15 05:19:30;;;;;;;;;;;23.40;99.90;;;;;;5020795;28;20064;-60
2022/08/15 05:21:59;;;;;;;;;;;23.40;99.90;;;;;;5020186;28;20737;-61
2022/08/15 05:24:28;;;;;;;;;;;23.50;99.90;;;;;;5018483;28;20162;-61
2022/08/15 05:26:56;;;;;;;;;;;23.40;99.90;;;;;;5017741;28;20402;-61
2022/08/15 05:29:29;;;;;;;;;;;23.50;99.90;;;;;;5019325;28;19988;-60
2022/08/15 05:31:58;;;;;;;;;;;23.30;99.90;;;;;;5021317;28;20336;-61
2022/08/15 05:34:26;;;;;;;;;;;23.40;99.90;;;;;;5021166;28;19989;-60
2022/08/15 05:37:11;;;;;;;;;;;23.30;99.90;;;;;;5018929;28;20541;-60
2022/08/15 05:39:42;;;;;;;;;;;23.10;99.90;;;;;;5019855;28;19996;-61
2022/08/15 05:42:18;;;;;;;;;;;22.90;99.90;;;;;;5020478;28;20469;-60
2022/08/15 05:45:05;;;;;;;;;;;22.90;99.90;;;;;;5019458;28;20039;-61
2022/08/15 05:47:37;;;;;;;;;;;22.80;99.90;;;;;;5019147;28;20032;-60
2022/08/15 05:50:13;;;;;;;;;;;22.80;99.90;;;;;;5020846;28;19976;-61
2022/08/15 05:52:46;;;;;;;;;;;22.70;99.90;;;;;;5020436;28;20026;-61
2022/08/15 05:55:18;;;;;;;;;;;22.70;99.90;;;;;;5020166;28;20123;-61
2022/08/15 05:57:51;;;;;;;;;;;22.70;99.90;;;;;;5019617;28;20025;-61
2022/08/15 06:00:20;;;;;;;;;;;22.70;99.90;;;;;;5019046;28;19972;-60
2022/08/15 06:02:50;;;;;;;;;;;22.60;99.90;;;;;;5020117;28;20034;-61
2022/08/15 06:05:28;;;;;;;;;;;22.60;99.90;;;;;;5019881;28;20063;-61
2022/08/15 06:08:07;;;;;;;;;;;22.80;99.90;;;;;;5027379;28;19997;-61
2022/08/15 06:10:38;;;;;;;;;;;22.80;99.90;;;;;;5030687;28;19977;-63
2022/08/15 06:13:08;;;;;;;;;;;22.90;99.90;;;;;;5031222;28;20944;-61
2022/08/15 06:15:47;;;;;;;;;;;22.90;99.90;;;;;;5032061;28;19973;-62
2022/08/15 06:18:23;;;;;;;;;;;23.00;99.90;;;;;;5028182;28;19980;-62
2022/08/15 06:20:57;;;;;;;;;;;23.10;99.90;;;;;;5026341;28;20009;-61
2022/08/15 06:23:32;;;;;;;;;;;23.10;99.90;;;;;;5023256;28;20492;-62
2022/08/15 06:26:12;;;;;;;;;;;23.10;99.90;;;;;;5023626;28;19976;-61
2022/08/15 06:28:56;;;;;;;;;;;23.10;99.90;;;;;;5024228;28;20011;-62
2022/08/15 06:31:29;;;;;;;;;;;23.00;99.90;;;;;;5025936;28;20058;-65
2022/08/15 06:34:11;;;;;;;;;;;23.00;99.90;;;;;;5020787;28;19992;-63
2022/08/15 06:37:03;;;;;;;;;;;23.00;99.90;;;;;;5025793;28;20010;-63
2022/08/15 06:39:36;;;;;;;;;;;23.00;99.90;;;;;;5029503;28;19973;-63
2022/08/15 06:42:08;;;;;;;;;;;23.00;99.90;;;;;;5024556;28;19974;-63
2022/08/15 06:44:40;;;;;;;;;;;22.90;99.90;;;;;;5030819;28;19966;-63
2022/08/15 06:47:10;;;;;;;;;;;23.00;99.90;;;;;;5032327;28;20000;-63
2022/08/15 06:49:41;;;;;;;;;;;23.10;99.90;;;;;;5031484;28;20517;-63
2022/08/15 06:52:11;;;;;;;;;;;23.10;99.90;;;;;;5031693;28;20356;-63
2022/08/15 06:54:47;;;;;;;;;;;23.20;99.90;;;;;;5031409;28;20019;-63
2022/08/15 06:57:20;;;;;;;;;;;23.30;99.90;;;;;;5032279;28;19978;-63
2022/08/15 06:59:54;;;;;;;;;;;23.50;99.90;;;;;;5031641;28;20521;-63
2022/08/15 07:02:31;;;;;;;;;;;23.60;99.90;;;;;;5031670;28;19965;-63
2022/08/15 07:05:13;;;;;;;;;;;23.80;99.90;;;;;;5031696;28;19979;-63
2022/08/15 07:07:54;;;;;;;;;;;23.90;99.90;;;;;;5031930;28;20102;-63
2022/08/15 07:10:26;;;;;;;;;;;23.90;99.90;;;;;;5031624;28;20053;-63
2022/08/15 07:12:58;;;;;;;;;;;24.00;99.90;;;;;;5031842;28;20086;-63
2022/08/15 07:15:35;;;;;;;;;;;24.10;99.90;;;;;;5030580;28;20298;-63
2022/08/15 07:18:07;;;;;;;;;;;24.10;99.90;;;;;;5031676;28;20111;-63
2022/08/15 07:20:35;;;;;;;;;;;24.30;99.90;;;;;;5031060;28;21399;-63
2022/08/15 07:23:16;;;;;;;;;;;24.40;99.90;;;;;;5031666;28;21017;-63
2022/08/15 07:25:47;;;;;;;;;;;24.50;99.90;;;;;;5031660;28;20683;-64
2022/08/15 07:28:19;;;;;;;;;;;24.50;99.90;;;;;;5031618;28;20949;-63
2022/08/15 07:30:51;;;;;;;;;;;24.40;99.90;;;;;;5030780;28;20270;-63
2022/08/15 07:33:27;;;;;;;;;;;24.40;99.90;;;;;;5011712;28;20133;-63
2022/08/15 07:36:03;;;;;;;;;;;24.30;99.90;;;;;;5011771;28;20049;-63
2022/08/15 07:38:33;;;;;;;;;;;24.30;99.90;;;;;;5011838;28;20825;-63
2022/08/15 07:41:21;;;;;;;;;;;24.30;99.90;;;;;;5021286;28;20322;-63
2022/08/15 07:43:53;;;;;;;;;;;24.40;99.90;;;;;;5031372;28;20731;-65
2022/08/15 07:46:22;;;;;;;;;;;24.40;99.90;;;;;;5031278;28;21281;-63
2022/08/15 07:48:55;;;;;;;;;;;24.40;99.90;;;;;;5031207;28;20083;-63
2022/08/15 07:51:26;;;;;;;;;;;24.40;99.90;;;;;;5034008;28;20076;-63
2022/08/15 07:53:59;;;;;;;;;;;24.40;99.90;;;;;;5034673;28;20794;-63
2022/08/15 07:56:29;;;;;;;;;;;24.50;99.90;;;;;;5034050;28;20083;-63
2022/08/15 07:59:19;;;;;;;;;;;24.50;99.90;;;;;;5035141;28;20478;-63
2022/08/15 08:01:54;;;;;;;;;;;24.50;99.90;;;;;;5035048;28;20078;-63
2022/08/15 08:04:23;;;;;;;;;;;24.50;99.90;;;;;;5034714;28;20121;-64
2022/08/15 08:06:55;;;;;;;;;;;24.60;99.90;;;;;;5034648;28;20094;-63
2022/08/15 08:09:26;;;;;;;;;;;24.60;99.90;;;;;;5034469;28;20453;-63
2022/08/15 08:12:05;;;;;;;;;;;24.60;99.90;;;;;;5034099;28;19976;-63
2022/08/15 08:14:37;;;;;;;;;;;24.60;99.90;;;;;;5034438;28;21458;-65
2022/08/15 08:17:12;;;;;;;;;;;24.60;99.90;;;;;;5034699;28;20052;-63
2022/08/15 08:19:49;;;;;;;;;;;24.60;99.90;;;;;;5034156;28;20116;-63
2022/08/15 08:22:26;;;;;;;;;;;24.60;99.90;;;;;;5034506;28;19987;-64
2022/08/15 08:25:01;;;;;;;;;;;24.50;99.90;;;;;;5034252;28;19972;-64
2022/08/15 08:27:40;;;;;;;;;;;24.50;99.90;;;;;;5034609;28;20042;-63
2022/08/15 08:30:22;;;;;;;;;;;24.50;99.90;;;;;;5034028;28;20024;-64
2022/08/15 08:33:14;;;;;;;;;;;24.40;99.90;;;;;;5014327;28;20517;-63
2022/08/15 08:35:44;;;;;;;;;;;24.40;99.90;;;;;;5014276;28;19980;-64
2022/08/15 08:38:28;;;;;;;;;;;24.30;99.90;;;;;;5014520;28;20777;-63
2022/08/15 08:41:29;;;;;;;;;;;24.10;99.90;;;;;;5022631;28;20016;-63
2022/08/15 08:44:06;;;;;;;;;;;24.20;99.90;;;;;;5034136;28;20473;-63
2022/08/15 08:46:58;;;;;;;;;;;24.30;99.90;;;;;;5033868;28;20001;-63
2022/08/15 08:49:33;;;;;;;;;;;24.40;99.90;;;;;;5033860;28;21230;-63
2022/08/15 08:52:25;;;;;;;;;;;24.60;99.90;;;;;;5033301;28;20319;-64
2022/08/15 08:54:57;;;;;;;;;;;24.80;99.90;;;;;;5032979;28;21147;-63
2022/08/15 08:57:31;;;;;;;;;;;25.10;99.90;;;;;;5033898;28;20800;-63
2022/08/15 09:00:03;;;;;;;;;;;25.40;99.90;;;;;;5033793;28;20390;-63
2022/08/15 09:02:35;;;;;;;;;;;25.60;99.90;;;;;;5033824;28;20670;-63
2022/08/15 09:05:22;;;;;;;;;;;25.90;99.90;;;;;;5033146;28;20881;-64
2022/08/15 09:07:53;;;;;;;;;;;25.90;99.90;;;;;;5033594;28;20017;-63
2022/08/15 09:10:24;;;;;;;;;;;25.90;99.90;;;;;;5033430;28;20106;-64
2022/08/15 09:15:46;;;;;;;;;;;26.00;99.90;;;;;;5033206;28;21260;-63
2022/08/15 09:18:25;;;;;;;;;;;26.20;99.90;;;;;;5033403;28;20275;-64
2022/08/15 09:20:56;;;;;;;;;;;26.10;99.90;;;;;;5033109;28;20681;-63
2022/08/15 09:23:24;;;;;;;;;;;25.90;99.90;;;;;;5033261;28;20703;-64
2022/08/15 09:26:02;;;;;;;;;;;25.60;99.90;;;;;;5032601;28;20287;-63
2022/08/15 09:28:32;;;;;;;;;;;25.20;99.90;;;;;;5033386;28;20982;-64
2022/08/15 09:31:07;;;;;;;;;;;25.20;99.90;;;;;;5033079;28;21054;-64
2022/08/15 09:34:06;;;;;;;;;;;25.00;99.90;;;;;;5033311;28;20386;-63
2022/08/15 09:36:56;;;;;;;;;;;24.90;99.90;;;;;;4991080;28;21738;-64
2022/08/15 09:39:31;;;;;;;;;;;24.90;99.90;;;;;;5030002;28;20502;-64
2022/08/15 09:42:14;;;;;;;;;;;25.10;99.90;;;;;;5032789;28;20293;-63
2022/08/15 09:45:08;;;;;;;;;;;25.00;99.90;;;;;;5032988;28;20651;-64
2022/08/15 09:47:57;;;;;;;;;;;25.00;99.90;;;;;;5032951;28;21075;-63
2022/08/15 09:50:34;;;;;;;;;;;24.90;99.90;;;;;;5032440;28;20032;-64
2022/08/15 09:53:13;;;;;;;;;;;25.10;99.90;;;;;;5058777;22;20097;-63
2022/08/15 09:55:44;;;;;;;;;;;25.00;99.90;;;;;;5021549;28;20721;-63
2022/08/15 09:58:13;;;;;;;;;;;25.20;99.90;;;;;;5032234;28;20049;-65
2022/08/15 10:00:53;;;;;;;;;;;25.30;99.90;;;;;;5025934;28;19975;-65
2022/08/15 10:03:23;;;;;;;;;;;25.70;99.90;;;;;;5012803;28;20033;-65
2022/08/15 10:06:08;;;;;;;;;;;25.80;99.90;;;;;;5012614;28;20370;-65
2022/08/15 10:09:15;;;;;;;;;;;26.00;99.90;;;;;;5012653;28;20773;-65
2022/08/15 10:11:57;;;;;;;;;;;26.10;99.90;;;;;;5012375;28;20070;-65
2022/08/15 10:14:42;;;;;;;;;;;26.10;99.90;;;;;;5022746;28;20667;-65
2022/08/15 10:17:23;;;;;;;;;;;26.20;99.90;;;;;;5016219;28;20780;-65
2022/08/15 10:19:56;;;;;;;;;;;26.00;99.90;;;;;;5012338;28;20641;-65
2022/08/15 10:22:49;;;;;;;;;;;26.00;99.90;;;;;;5012486;28;20088;-65
2022/08/15 10:25:20;;;;;;;;;;;26.00;99.90;;;;;;5012290;28;20565;-66
2022/08/15 10:27:54;;;;;;;;;;;26.10;99.90;;;;;;5012405;28;20036;-65
2022/08/15 10:30:24;;;;;;;;;;;26.10;99.90;;;;;;5012177;28;20131;-65
2022/08/15 10:33:25;;;;;;;;;;;26.30;99.90;;;;;;5012397;28;19980;-66
2022/08/15 10:36:04;;;;;;;;;;;26.60;99.90;;;;;;5012074;28;25071;-66
2022/08/15 10:38:58;;;;;;;;;;;27.10;99.90;;;;;;5013370;28;20609;-65
2022/08/15 10:41:32;;;;;;;;;;;27.60;99.90;;;;;;5012227;28;20155;-65
2022/08/15 10:44:05;;;;;;;;;;;28.20;99.90;;;;;;5012272;28;20657;-65
2022/08/15 10:46:59;;;;;;;;;;;28.80;99.20;;;;;;5011828;28;25102;-66
2022/08/15 10:49:34;;;;;;;;;;;28.70;98.80;;;;;;5027830;28;20578;-66
2022/08/15 10:52:20;;;;;;;;;;;28.70;98.40;;;;;;5012179;28;20333;-66
2022/08/15 10:55:09;;;;;;;;;;;28.50;98.70;;;;;;5015166;28;25077;-65
2022/08/15 10:57:41;;;;;;;;;;;28.40;98.60;;;;;;5025000;28;20097;-66
2022/08/15 11:00:14;;;;;;;;;;;28.30;98.40;;;;;;5031657;28;20485;-66
2022/08/15 11:03:03;;;;;;;;;;;28.20;98.20;;;;;;5026364;28;21262;-65
2022/08/15 11:05:38;;;;;;;;;;;28.30;98.70;;;;;;5012058;28;20400;-66
2022/08/15 11:08:13;;;;;;;;;;;28.20;97.70;;;;;;5012099;28;20021;-66
2022/08/15 11:10:44;;;;;;;;;;;28.10;97.10;;;;;;5011797;28;20536;-63
2022/08/15 11:13:15;;;;;;;;;;;28.10;97.80;;;;;;5011708;28;25081;-63
2022/08/15 11:15:49;;;;;;;;;;;28.00;96.80;;;;;;5011620;28;20153;-64
2022/08/15 11:18:23;;;;;;;;;;;28.00;97.10;;;;;;5012792;28;20310;-63
2022/08/15 11:20:53;;;;;;;;;;;27.80;97.10;;;;;;5011674;28;20238;-63
2022/08/15 11:23:36;;;;;;;;;;;27.70;97.60;;;;;;5014293;28;20689;-63
2022/08/15 11:26:04;;;;;;;;;;;27.60;98.10;;;;;;5014075;28;20445;-63
2022/08/15 11:29:06;;;;;;;;;;;27.20;98.80;;;;;;5015697;28;20449;-63
2022/08/15 11:31:42;;;;;;;;;;;27.30;99.30;;;;;;5015286;28;20369;-63
2022/08/15 11:34:18;;;;;;;;;;;27.40;99.00;;;;;;5015399;28;20582;-63
2022/08/15 11:37:09;;;;;;;;;;;27.30;98.70;;;;;;5015395;28;20495;-63
2022/08/15 11:39:47;;;;;;;;;;;27.10;99.20;;;;;;5015395;28;20410;-63
2022/08/15 11:42:17;;;;;;;;;;;27.00;99.50;;;;;;5015448;28;20180;-63
2022/08/15 11:44:51;;;;;;;;;;;26.90;99.90;;;;;;5015044;28;20300;-63
2022/08/15 11:47:19;;;;;;;;;;;26.80;99.90;;;;;;5021413;28;20360;-65
2022/08/15 11:49:49;;;;;;;;;;;26.50;99.90;;;;;;5034786;28;20575;-65
2022/08/15 11:52:25;;;;;;;;;;;26.30;99.90;;;;;;5034998;28;20071;-66
2022/08/15 11:55:14;;;;;;;;;;;26.10;99.90;;;;;;5034411;28;20831;-65
2022/08/15 11:57:53;;;;;;;;;;;25.80;99.90;;;;;;5034684;28;20499;-66
2022/08/15 12:00:28;;;;;;;;;;;25.60;99.90;;;;;;5034762;28;20279;-66
2022/08/15 12:02:57;;;;;;;;;;;25.50;99.90;;;;;;5020382;28;20524;-65
2022/08/15 12:05:45;;;;;;;;;;;25.30;99.90;;;;;;5014906;28;19972;-67
2022/08/15 12:08:33;;;;;;;;;;;25.10;99.90;;;;;;5014983;28;20055;-65
2022/08/15 12:11:04;;;;;;;;;;;25.00;99.90;;;;;;5014602;28;20082;-65
2022/08/15 12:13:35;;;;;;;;;;;24.90;99.90;;;;;;5014525;28;20578;-65
2022/08/15 12:16:06;;;;;;;;;;;25.00;99.90;;;;;;5014616;28;20555;-65
2022/08/15 12:18:53;;;;;;;;;;;24.90;99.90;;;;;;5014766;28;19982;-65
2022/08/15 12:21:23;;;;;;;;;;;24.80;99.90;;;;;;5015267;28;20018;-65
2022/08/15 12:23:54;;;;;;;;;;;24.70;99.90;;;;;;5020049;28;19971;-66
2022/08/15 12:26:24;;;;;;;;;;;24.60;99.90;;;;;;5034214;28;20011;-65
2022/08/15 12:29:12;;;;;;;;;;;24.40;99.90;;;;;;5034309;28;20834;-66
2022/08/15 12:31:43;;;;;;;;;;;24.30;99.90;;;;;;5033980;28;20552;-65
2022/08/15 12:34:12;;;;;;;;;;;24.30;99.90;;;;;;5032757;28;20156;-66
2022/08/15 12:37:00;;;;;;;;;;;24.30;99.90;;;;;;5033651;28;20002;-65
2022/08/15 12:39:34;;;;;;;;;;;24.30;99.90;;;;;;5034121;28;19988;-65
2022/08/15 12:42:02;;;;;;;;;;;24.40;99.90;;;;;;5034065;28;19988;-65
2022/08/15 12:44:51;;;;;;;;;;;24.30;99.90;;;;;;5033950;28;20025;-66
2022/08/15 12:47:23;;;;;;;;;;;24.30;99.90;;;;;;5032998;28;20096;-65
2022/08/15 12:49:59;;;;;;;;;;;24.20;99.90;;;;;;5017028;28;19984;-65
2022/08/15 12:52:27;;;;;;;;;;;24.30;99.90;;;;;;5017007;28;20380;-65
2022/08/15 12:54:54;;;;;;;;;;;24.40;99.90;;;;;;5013421;28;20471;-66
2022/08/15 12:57:25;;;;;;;;;;;24.50;99.90;;;;;;5013848;28;20359;-65
2022/08/15 13:00:14;;;;;;;;;;;24.50;99.90;;;;;;5013757;28;20182;-65
2022/08/15 13:03:07;;;;;;;;;;;24.60;99.90;;;;;;5013853;28;20510;-64
2022/08/15 13:05:44;;;;;;;;;;;24.70;99.90;;;;;;5014680;28;20801;-65
2022/08/15 13:08:32;;;;;;;;;;;24.60;99.90;;;;;;5029861;28;21205;-65
2022/08/15 13:11:06;;;;;;;;;;;24.60;99.90;;;;;;5033372;28;20674;-64
2022/08/15 13:13:39;;;;;;;;;;;24.50;99.90;;;;;;5033358;28;20660;-65
2022/08/15 13:16:08;;;;;;;;;;;24.50;99.90;;;;;;5033102;28;20296;-65
2022/08/15 13:18:57;;;;;;;;;;;25.10;99.90;;;;;;5033507;28;20672;-65
2022/08/15 13:24:25;;;;;;;;;;;26.10;99.90;;;;;;5033266;28;20301;-65
2022/08/15 13:26:54;;;;;;;;;;;26.70;99.90;;;;;;5021559;28;20307;-65
2022/08/15 13:29:24;;;;;;;;;;;27.10;99.90;;;;;;5013361;28;20790;-65
2022/08/15 13:31:51;;;;;;;;;;;27.60;99.90;;;;;;5013100;28;20433;-65
2022/08/15 13:34:22;;;;;;;;;;;27.40;99.90;;;;;;5013320;28;21166;-65
2022/08/15 13:36:51;;;;;;;;;;;27.50;99.90;;;;;;5012949;28;25092;-65
2022/08/15 13:39:22;;;;;;;;;;;27.90;99.90;;;;;;5013233;28;20747;-65
2022/08/15 13:41:57;;;;;;;;;;;28.50;99.90;;;;;;5013157;28;20880;-65
2022/08/15 13:44:45;;;;;;;;;;;28.80;99.90;;;;;;5013000;28;20124;-65
2022/08/15 13:47:15;;;;;;;;;;;28.80;99.90;;;;;;5029909;28;20605;-65
2022/08/15 13:49:44;;;;;;;;;;;28.50;99.90;;;;;;5032398;28;20607;-65
2022/08/15 13:52:16;;;;;;;;;;;28.90;99.90;;;;;;5032576;28;20395;-65
2022/08/15 13:55:04;;;;;;;;;;;29.50;99.90;;;;;;5031852;28;21000;-66
2022/08/15 13:57:43;;;;;;;;;;;30.40;99.80;;;;;;5032465;28;20248;-65
2022/08/15 14:00:33;;;;;;;;;;;31.40;98.00;;;;;;5030928;28;20697;-65
2022/08/15 14:03:21;;;;;;;;;;;31.60;97.40;;;;;;5017227;28;21206;-65
2022/08/15 14:05:52;;;;;;;;;;;31.60;95.30;;;;;;5012605;28;21075;-65
2022/08/15 14:08:25;;;;;;;;;;;31.80;95.10;;;;;;5012639;28;20578;-65
2022/08/15 14:10:59;;;;;;;;;;;32.00;94.30;;;;;;5012361;28;21275;-66
2022/08/15 14:13:40;;;;;;;;;;;31.20;94.60;;;;;;5016313;28;20463;-65
2022/08/15 14:16:10;;;;;;;;;;;30.80;95.00;;;;;;5012515;28;20583;-65
2022/08/15 14:18:58;;;;;;;;;;;30.90;94.90;;;;;;5012662;28;20865;-66
2022/08/15 14:21:32;;;;;;;;;;;31.40;94.40;;;;;;5012332;28;21171;-66
2022/08/15 14:24:00;;;;;;;;;;;31.40;94.10;;;;;;5012117;28;20167;-65
2022/08/15 14:26:30;;;;;;;;;;;31.70;93.00;;;;;;5012369;28;20520;-66
2022/08/15 14:29:21;;;;;;;;;;;31.80;93.20;;;;;;5012362;28;20296;-66
2022/08/15 14:32:10;;;;;;;;;;;31.70;92.50;;;;;;5012191;28;21175;-64
2022/08/15 14:34:58;;;;;;;;;;;31.30;92.60;;;;;;5012337;28;20399;-65
2022/08/15 14:37:28;;;;;;;;;;;31.30;92.30;;;;;;5012184;28;20592;-65
2022/08/15 14:40:17;;;;;;;;;;;31.60;92.30;;;;;;5012050;28;25102;-65
2022/08/15 14:42:47;;;;;;;;;;;32.00;92.60;;;;;;5012267;28;20285;-65
2022/08/15 14:45:17;;;;;;;;;;;32.50;91.30;;;;;;5015954;28;20257;-65
2022/08/15 14:48:06;;;;;;;;;;;32.90;90.80;;;;;;5012012;28;25057;-65
2022/08/15 14:50:51;;;;;;;;;;;32.70;90.70;;;;;;5012016;28;20806;-66
2022/08/15 14:53:43;;;;;;;;;;;32.60;90.70;;;;;;5011829;28;20413;-65
2022/08/15 14:56:11;;;;;;;;;;;32.70;90.80;;;;;;5020925;28;20321;-66
2022/08/15 14:58:41;;;;;;;;;;;32.80;90.40;;;;;;5032151;28;20418;-65
2022/08/15 15:01:13;;;;;;;;;;;32.40;89.90;;;;;;5035822;28;20196;-65
2022/08/15 15:04:02;;;;;;;;;;;32.50;90.00;;;;;;5020860;28;20460;-65
2022/08/15 15:06:35;;;;;;;;;;;32.90;89.80;;;;;;5016107;28;20219;-66
2022/08/15 15:09:08;;;;;;;;;;;33.00;89.00;;;;;;5016075;28;20378;-65
2022/08/15 15:11:44;;;;;;;;;;;33.10;88.40;;;;;;5015802;28;20109;-66
2022/08/15 15:14:21;;;;;;;;;;;33.00;88.20;;;;;;5016089;28;20410;-65